Extreme weather reports worldwide

Thunderstorm

Station
 
Location
 
Name
 
Wind
Knots
Gust
Knots
Vis
SM
Temp/Dew
C
Baro
inHg
METAR
 
KDEW Deer Park, US Deer Park Airport 18 25 10 12/3 30.02 KDEW 190253Z AUTO 07018G25KT 10SM VCTS FEW070 OVC100 12/04 A3002 RMK AO2 PK WND 08033/0226 WSHFT 0219 PRESRR SLP167 T01220039 53022
LAL KLAL Lakeland, US Lakeland Linder International Airport 14 10 21/18 29.97 KLAL 190255Z AUTO 30014KT 10SM -TSRA SCT019 BKN035 OVC048 21/18 A2997 RMK AO2 LTG DSNT ALQDS PNO
QPG WSAP SG Paya Lebar Air Base 12 3.73 30/22 29.91 WSAP 190300Z 19012KT 6000 -TSRA FEW016CB BKN018TCU 30/22 Q1013
XSP WSSL Seletar, SG Seletar Airport 12 0.5 24/23 29.91 WSSL 190306Z 23012KT 190V270 0800 R03/P2000D R21/P2000N +TSRA FEW010 FEW012CB BKN015TCU 24/23 Q1013
NAN NFFN Nadi, FJ Nadi International Airport 11 6.21 30/24 29.85 NFFN 190300Z 29011KT 9999 TS FEW018CB SCT022TCU 30/24 Q1011 TEMPO 5000 TSRA

Station
 
Location
 
Name
 
Wind
Knots
Gust
Knots
Vis
SM
Temp/Dew
C
Baro
inHg
METAR
 
FIH FZAA Kinshasa, CD Ndjili International Airport 8 4.35 24/22 29.88 FZAA 190300Z 18008KT 7000 -TSRA SCT016 FEW028CB BKN080 24/22 Q1012 TEMPO TS
LBV FOOL Libreville, GA Libreville Leon M'ba International Airport 8 2.49 26/24 29.85 FOOL 190300Z 17008KT 4000 TSRA SCT010 FEW020CB 26/24 Q1011 TEMPO 2000 +TSRA
ASK DIYO Yamoussoukro, CI Yamoussoukro Airport 8 4.97 24/22 29.88 DIYO 190300Z 08008KT 8000 TS SCT010 FEW020CB 24/22 Q1012 NOSIG
TDX VTBO TH Trat Airport 8 6.21 30/26 29.85 VTBO 190300Z 20008KT 9999 TS FEW018CB SCT020 30/26 Q1011
TGU MHTG Tegucigalpa, HN Toncontín International Airport 8 4.97 20/18 30.09 MHTG 190300Z 18008KT 8000 TSRA SCT028 SCT030CB BKN080 20/18 Q1019 A3009 NOSIG
SZB WMSA Subang, MY Sultan Abdul Aziz Shah International Airport 7 5.59 28/25 29.91 WMSA 190300Z 28007KT 250V320 9000 4000S -TSRA FEW017CB SCT018 28/25 Q1013
NSI FKYS Yaoundé, CM Yaoundé Nsimalen International Airport 6 6.21 23/22 29.97 FKYS 190300Z 23006KT 9999 TS BKN006 FEW020CB 23/22 Q1015 NOSIG
AJL VELP Aizawl, IN Lengpui Airport 6 1.86 23/18 29.91 VELP 190230Z 01006KT 3000 TS BR SCT018 FEW030CB BKN100 23/18 Q1013 BECMG 1500 -TSRA
EBB HUEN Kampala, UG Entebbe International Airport 6 5.59 19/17 30.00 HUEN 190230Z 22006KT 9000 TSRA FEW017 FEW019CB 19/17 Q1016
KDED Deland, US Deland Municipal Sidney H Taylor Field 4 10 20/19 29.96 KDED 190255Z AUTO 22004KT 10SM -VCTSRA SCT044 SCT065 SCT120 20/20 A2996 RMK AO2 LTG DSNT SW T02030197 60001
STM SBSN Santarém, BR Maestro Wilson Fonseca Airport 4 4.97 24/24 29.91 SBSN 190300Z 18004KT 8000 -TSRA SCT016 FEW020CB BKN100 24/24 Q1013
GIF KGIF Winter Haven, US Winter Haven Regional Airport - Gilbert Field 3 10 25/20 29.95 KGIF 190253Z AUTO 26003KT 10SM VCTS BKN040 26/21 A2995 RMK AO2 LTG DSNT SW-N SLP139 T02560206 51016
KCGC Crystal River, US Crystal River Airport 3 10 21/20 29.91 KCGC 190255Z AUTO 17003KT 10SM VCTS SCT038 SCT045 BKN110 21/20 A2991 RMK AO2 LTG DSNT SE AND S P0007
BOW KBOW Bartow, US Bartow Executive Airport 3 10 25/21 29.95 KBOW 190255Z AUTO 20003KT 10SM VCTS FEW039 SCT044 BKN060 25/21 A2995 RMK AO2 LTG DSNT W-N
ZPH KZPH Zephyrhills, US Zephyrhills Municipal Airport 0 4 20/18 29.96 KZPH 190255Z AUTO 00000KT 4SM -TSRA BR SCT009 BKN042 OVC075 20/19 A2996 RMK A02 LTG DSNT ALQDS P0084 T02000188 60084
KHEG Jacksonville, US Herlong Airport 0 19/19 29.93 KHEG 190255Z AUTO 00000KT VCTS 19/19 A2993 RMK AO2 LTG DSNT S
LEE KLEE Leesburg, US Leesburg International Airport 0 5 20/18 29.94 KLEE 190253Z AUTO 00000KT 5SM VCTS RA BR FEW070 BKN090 OVC110 20/19 A2994 RMK AO2 LTG DSNT E-SW RAB0158 TSB09E24 SLP139 P0028 60044 T02000189 50018